sensor_id;sensor_type;location;lat;lon;timestamp;temperature;humidity
23520;DHT22;11936;50.820;4.336;2022-09-20T00:01:44;14.30;99.90
23520;DHT22;11936;50.820;4.336;2022-09-20T00:04:09;14.20;99.90
23520;DHT22;11936;50.820;4.336;2022-09-20T00:06:35;14.20;99.90
23520;DHT22;11936;50.820;4.336;2022-09-20T00:09:01;14.20;99.90
23520;DHT22;11936;50.820;4.336;2022-09-20T00:11:30;14.10;99.90
23520;DHT22;11936;50.820;4.336;2022-09-20T00:13:57;14.20;99.90
23520;DHT22;11936;50.820;4.336;2022-09-20T00:16:32;14.10;99.90
23520;DHT22;11936;50.820;4.336;2022-09-20T00:19:00;14.10;99.90
23520;DHT22;11936;50.820;4.336;2022-09-20T00:21:29;14.00;99.90
23520;DHT22;11936;50.820;4.336;2022-09-20T00:23:55;14.10;99.90
23520;DHT22;11936;50.820;4.336;2022-09-20T00:26:22;14.10;99.90
23520;DHT22;11936;50.820;4.336;2022-09-20T00:28:47;14.00;99.90
23520;DHT22;11936;50.820;4.336;2022-09-20T00:31:14;14.10;99.90
23520;DHT22;11936;50.820;4.336;2022-09-20T00:33:39;14.10;99.90
23520;DHT22;11936;50.820;4.336;2022-09-20T00:36:24;14.10;99.90
23520;DHT22;11936;50.820;4.336;2022-09-20T00:38:59;14.20;99.90
23520;DHT22;11936;50.820;4.336;2022-09-20T00:41:26;14.10;99.90
23520;DHT22;11936;50.820;4.336;2022-09-20T00:43:53;14.10;99.90
23520;DHT22;11936;50.820;4.336;2022-09-20T00:46:37;14.10;99.90
23520;DHT22;11936;50.820;4.336;2022-09-20T00:51:43;14.10;99.90
23520;DHT22;11936;50.820;4.336;2022-09-20T00:54:11;14.10;99.90
23520;DHT22;11936;50.820;4.336;2022-09-20T00:56:40;14.10;99.90
23520;DHT22;11936;50.820;4.336;2022-09-20T01:01:41;13.80;99.90
23520;DHT22;11936;50.820;4.336;2022-09-20T01:04:07;13.80;99.90
23520;DHT22;11936;50.820;4.336;2022-09-20T01:06:33;13.70;99.90
23520;DHT22;11936;50.820;4.336;2022-09-20T01:09:02;13.50;99.90
23520;DHT22;11936;50.820;4.336;2022-09-20T01:11:30;13.50;99.90
23520;DHT22;11936;50.820;4.336;2022-09-20T01:13:56;13.70;99.90
23520;DHT22;11936;50.820;4.336;2022-09-20T01:16:23;13.70;99.90
23520;DHT22;11936;50.820;4.336;2022-09-20T01:18:50;13.50;99.90
23520;DHT22;11936;50.820;4.336;2022-09-20T01:21:17;13.50;99.90
23520;DHT22;11936;50.820;4.336;2022-09-20T01:28:49;13.40;99.90
23520;DHT22;11936;50.820;4.336;2022-09-20T01:31:30;13.40;99.90
23520;DHT22;11936;50.820;4.336;2022-09-20T01:34:01;13.40;99.90
23520;DHT22;11936;50.820;4.336;2022-09-20T01:36:38;13.40;99.90
23520;DHT22;11936;50.820;4.336;2022-09-20T01:41:54;13.50;99.90
23520;DHT22;11936;50.820;4.336;2022-09-20T01:48:08;13.40;99.90
23520;DHT22;11936;50.820;4.336;2022-09-20T02:01:50;13.00;99.90
23520;DHT22;11936;50.820;4.336;2022-09-20T02:07:19;13.10;99.90
23520;DHT22;11936;50.820;4.336;2022-09-20T02:10:13;13.20;99.90
23520;DHT22;11936;50.820;4.336;2022-09-20T02:12:55;13.10;99.90
23520;DHT22;11936;50.820;4.336;2022-09-20T02:16:04;13.20;99.90
23520;DHT22;11936;50.820;4.336;2022-09-20T02:23:50;13.20;99.90
23520;DHT22;11936;50.820;4.336;2022-09-20T02:26:48;13.30;99.90
23520;DHT22;11936;50.820;4.336;2022-09-20T02:32:16;13.00;99.90
23520;DHT22;11936;50.820;4.336;2022-09-20T02:42:57;12.90;99.90
23520;DHT22;11936;50.820;4.336;2022-09-20T02:48:04;12.90;99.90
23520;DHT22;11936;50.820;4.336;2022-09-20T02:58:59;13.00;99.90
23520;DHT22;11936;50.820;4.336;2022-09-20T03:01:46;13.00;99.90
23520;DHT22;11936;50.820;4.336;2022-09-20T03:07:02;13.30;99.90
23520;DHT22;11936;50.820;4.336;2022-09-20T03:09:51;13.30;99.90
23520;DHT22;11936;50.820;4.336;2022-09-20T03:12:44;13.20;99.90
23520;DHT22;11936;50.820;4.336;2022-09-20T03:15:44;13.30;99.90
23520;DHT22;11936;50.820;4.336;2022-09-20T03:18:41;13.20;99.90
23520;DHT22;11936;50.820;4.336;2022-09-20T03:21:23;13.30;99.90
23520;DHT22;11936;50.820;4.336;2022-09-20T03:29:22;13.40;99.90
23520;DHT22;11936;50.820;4.336;2022-09-20T03:32:03;13.50;99.90
23520;DHT22;11936;50.820;4.336;2022-09-20T03:42:25;13.50;99.90
23520;DHT22;11936;50.820;4.336;2022-09-20T03:56:58;13.10;99.90
23520;DHT22;11936;50.820;4.336;2022-09-20T03:59:50;13.10;99.90
23520;DHT22;11936;50.820;4.336;2022-09-20T04:04:59;13.10;99.90
23520;DHT22;11936;50.820;4.336;2022-09-20T04:10:31;13.20;99.90
23520;DHT22;11936;50.820;4.336;2022-09-20T04:15:56;13.10;99.90
23520;DHT22;11936;50.820;4.336;2022-09-20T04:21:28;13.30;99.90
23520;DHT22;11936;50.820;4.336;2022-09-20T04:24:22;13.30;99.90
23520;DHT22;11936;50.820;4.336;2022-09-20T04:26:59;13.30;99.90
23520;DHT22;11936;50.820;4.336;2022-09-20T04:29:51;13.20;99.90
23520;DHT22;11936;50.820;4.336;2022-09-20T04:32:35;13.10;99.90
23520;DHT22;11936;50.820;4.336;2022-09-20T04:38:02;13.10;99.90
23520;DHT22;11936;50.820;4.336;2022-09-20T05:00:22;12.70;99.90
23520;DHT22;11936;50.820;4.336;2022-09-20T05:20:05;12.80;99.90
23520;DHT22;11936;50.820;4.336;2022-09-20T05:28:09;12.70;99.90
23520;DHT22;11936;50.820;4.336;2022-09-20T05:30:45;12.50;99.90
23520;DHT22;11936;50.820;4.336;2022-09-20T05:33:34;12.50;99.90
23520;DHT22;11936;50.820;4.336;2022-09-20T05:47:23;12.80;99.90
23520;DHT22;11936;50.820;4.336;2022-09-20T05:50:21;12.90;99.90
23520;DHT22;11936;50.820;4.336;2022-09-20T05:52:53;12.70;99.90
23520;DHT22;11936;50.820;4.336;2022-09-20T06:01:39;12.60;99.90
23520;DHT22;11936;50.820;4.336;2022-09-20T06:03:46;12.40;99.90
23520;DHT22;11936;50.820;4.336;2022-09-20T06:06:28;12.30;99.90
23520;DHT22;11936;50.820;4.336;2022-09-20T06:12:30;12.20;99.90
23520;DHT22;11936;50.820;4.336;2022-09-20T06:15:15;12.20;99.90
23520;DHT22;11936;50.820;4.336;2022-09-20T06:18:16;12.10;99.90
23520;DHT22;11936;50.820;4.336;2022-09-20T06:23:47;12.30;99.90
23520;DHT22;11936;50.820;4.336;2022-09-20T06:26:19;12.40;99.90
23520;DHT22;11936;50.820;4.336;2022-09-20T06:28:53;12.60;99.90
23520;DHT22;11936;50.820;4.336;2022-09-20T06:31:20;12.50;99.90
23520;DHT22;11936;50.820;4.336;2022-09-20T06:34:07;12.60;99.90
23520;DHT22;11936;50.820;4.336;2022-09-20T06:36:37;12.70;99.90
23520;DHT22;11936;50.820;4.336;2022-09-20T06:39:48;12.80;99.90
23520;DHT22;11936;50.820;4.336;2022-09-20T06:42:34;12.80;99.90
23520;DHT22;11936;50.820;4.336;2022-09-20T06:45:00;12.70;99.90
23520;DHT22;11936;50.820;4.336;2022-09-20T06:47:26;12.70;99.90
23520;DHT22;11936;50.820;4.336;2022-09-20T06:49:51;12.70;99.90
23520;DHT22;11936;50.820;4.336;2022-09-20T06:52:19;12.80;99.90
23520;DHT22;11936;50.820;4.336;2022-09-20T06:54:46;12.80;99.90
23520;DHT22;11936;50.820;4.336;2022-09-20T06:57:15;12.80;99.90
23520;DHT22;11936;50.820;4.336;2022-09-20T06:59:42;12.80;99.90
23520;DHT22;11936;50.820;4.336;2022-09-20T07:02:07;13.00;99.90
23520;DHT22;11936;50.820;4.336;2022-09-20T07:04:33;13.00;99.90
23520;DHT22;11936;50.820;4.336;2022-09-20T07:07:00;13.00;99.90
23520;DHT22;11936;50.820;4.336;2022-09-20T07:09:26;12.90;99.90
23520;DHT22;11936;50.820;4.336;2022-09-20T07:11:52;12.90;99.90
23520;DHT22;11936;50.820;4.336;2022-09-20T07:14:19;12.90;99.90
23520;DHT22;11936;50.820;4.336;2022-09-20T07:16:44;12.90;99.90
23520;DHT22;11936;50.820;4.336;2022-09-20T07:19:10;13.00;99.90
23520;DHT22;11936;50.820;4.336;2022-09-20T07:21:35;13.00;99.90
23520;DHT22;11936;50.820;4.336;2022-09-20T07:24:01;13.10;99.90
23520;DHT22;11936;50.820;4.336;2022-09-20T07:26:28;13.20;99.90
23520;DHT22;11936;50.820;4.336;2022-09-20T07:28:55;13.00;99.90
23520;DHT22;11936;50.820;4.336;2022-09-20T07:31:23;13.00;99.90
23520;DHT22;11936;50.820;4.336;2022-09-20T07:33:49;13.00;99.90
23520;DHT22;11936;50.820;4.336;2022-09-20T07:36:15;13.20;99.90
23520;DHT22;11936;50.820;4.336;2022-09-20T07:38:45;13.20;99.90
23520;DHT22;11936;50.820;4.336;2022-09-20T07:41:11;13.30;99.90
23520;DHT22;11936;50.820;4.336;2022-09-20T07:43:36;13.20;99.90
23520;DHT22;11936;50.820;4.336;2022-09-20T07:46:02;13.20;99.90
23520;DHT22;11936;50.820;4.336;2022-09-20T07:48:31;13.20;99.90
23520;DHT22;11936;50.820;4.336;2022-09-20T07:51:17;13.10;99.90
23520;DHT22;11936;50.820;4.336;2022-09-20T07:53:42;13.20;99.90
23520;DHT22;11936;50.820;4.336;2022-09-20T07:56:14;13.10;99.90
23520;DHT22;11936;50.820;4.336;2022-09-20T07:58:41;13.10;99.90
23520;DHT22;11936;50.820;4.336;2022-09-20T08:01:10;13.10;99.90
23520;DHT22;11936;50.820;4.336;2022-09-20T08:03:36;13.20;99.90
23520;DHT22;11936;50.820;4.336;2022-09-20T08:06:05;13.30;99.90
23520;DHT22;11936;50.820;4.336;2022-09-20T08:08:32;13.40;99.90
23520;DHT22;11936;50.820;4.336;2022-09-20T08:11:04;13.50;99.90
23520;DHT22;11936;50.820;4.336;2022-09-20T08:13:40;13.60;99.90
23520;DHT22;11936;50.820;4.336;2022-09-20T08:16:08;13.60;99.90
23520;DHT22;11936;50.820;4.336;2022-09-20T08:18:35;13.70;99.90
23520;DHT22;11936;50.820;4.336;2022-09-20T08:21:08;13.70;99.90
23520;DHT22;11936;50.820;4.336;2022-09-20T08:23:39;13.70;99.90
23520;DHT22;11936;50.820;4.336;2022-09-20T08:26:08;13.70;99.90
23520;DHT22;11936;50.820;4.336;2022-09-20T08:28:36;13.80;99.90
23520;DHT22;11936;50.820;4.336;2022-09-20T08:31:06;13.80;99.90
23520;DHT22;11936;50.820;4.336;2022-09-20T08:33:32;13.80;99.90
23520;DHT22;11936;50.820;4.336;2022-09-20T08:35:58;13.80;99.90
23520;DHT22;11936;50.820;4.336;2022-09-20T08:38:25;13.90;99.90
23520;DHT22;11936;50.820;4.336;2022-09-20T08:43:54;14.20;99.90
23520;DHT22;11936;50.820;4.336;2022-09-20T08:46:27;14.30;99.90
23520;DHT22;11936;50.820;4.336;2022-09-20T08:48:55;14.40;99.90
23520;DHT22;11936;50.820;4.336;2022-09-20T08:51:22;14.60;99.90
23520;DHT22;11936;50.820;4.336;2022-09-20T08:53:54;14.60;99.90
23520;DHT22;11936;50.820;4.336;2022-09-20T08:56:21;14.80;99.90
23520;DHT22;11936;50.820;4.336;2022-09-20T08:58:47;14.90;99.90
23520;DHT22;11936;50.820;4.336;2022-09-20T09:01:22;14.90;99.90
23520;DHT22;11936;50.820;4.336;2022-09-20T09:03:57;15.10;99.90
23520;DHT22;11936;50.820;4.336;2022-09-20T09:06:25;15.10;99.90
23520;DHT22;11936;50.820;4.336;2022-09-20T09:08:51;15.20;99.90
23520;DHT22;11936;50.820;4.336;2022-09-20T09:11:19;15.30;99.90
23520;DHT22;11936;50.820;4.336;2022-09-20T09:16:56;15.40;99.90
23520;DHT22;11936;50.820;4.336;2022-09-20T09:19:42;15.30;99.90
23520;DHT22;11936;50.820;4.336;2022-09-20T09:22:09;15.40;99.90
23520;DHT22;11936;50.820;4.336;2022-09-20T09:24:35;15.40;99.90
23520;DHT22;11936;50.820;4.336;2022-09-20T09:27:06;15.50;99.90
23520;DHT22;11936;50.820;4.336;2022-09-20T09:29:32;15.60;99.90
23520;DHT22;11936;50.820;4.336;2022-09-20T09:32:22;15.60;99.90
23520;DHT22;11936;50.820;4.336;2022-09-20T09:34:49;15.60;99.90
23520;DHT22;11936;50.820;4.336;2022-09-20T09:37:29;15.70;99.90
23520;DHT22;11936;50.820;4.336;2022-09-20T09:42:31;15.70;99.90
23520;DHT22;11936;50.820;4.336;2022-09-20T09:45:22;15.80;99.90
23520;DHT22;11936;50.820;4.336;2022-09-20T09:47:51;15.90;99.90
23520;DHT22;11936;50.820;4.336;2022-09-20T09:50:25;16.00;99.90
23520;DHT22;11936;50.820;4.336;2022-09-20T09:53:07;16.10;99.90
23520;DHT22;11936;50.820;4.336;2022-09-20T09:56:01;16.10;99.90
23520;DHT22;11936;50.820;4.336;2022-09-20T10:01:12;16.10;99.90
23520;DHT22;11936;50.820;4.336;2022-09-20T10:06:22;16.00;99.90
23520;DHT22;11936;50.820;4.336;2022-09-20T10:31:34;16.00;99.90
23520;DHT22;11936;50.820;4.336;2022-09-20T10:34:27;16.20;99.90
23520;DHT22;11936;50.820;4.336;2022-09-20T10:37:00;16.20;99.90
23520;DHT22;11936;50.820;4.336;2022-09-20T10:39:33;16.30;99.90
23520;DHT22;11936;50.820;4.336;2022-09-20T10:48:31;16.50;99.90
23520;DHT22;11936;50.820;4.336;2022-09-20T10:51:17;16.50;99.90
23520;DHT22;11936;50.820;4.336;2022-09-20T10:56:49;16.50;99.90
23520;DHT22;11936;50.820;4.336;2022-09-20T10:59:39;16.50;99.90
23520;DHT22;11936;50.820;4.336;2022-09-20T11:05:17;16.60;99.90
23520;DHT22;11936;50.820;4.336;2022-09-20T11:07:59;16.50;99.90
23520;DHT22;11936;50.820;4.336;2022-09-20T11:10:34;16.40;99.90
23520;DHT22;11936;50.820;4.336;2022-09-20T11:13:37;16.30;99.90
23520;DHT22;11936;50.820;4.336;2022-09-20T11:16:15;16.30;99.90
23520;DHT22;11936;50.820;4.336;2022-09-20T11:18:47;16.20;99.90
23520;DHT22;11936;50.820;4.336;2022-09-20T11:21:34;16.10;99.90
23520;DHT22;11936;50.820;4.336;2022-09-20T11:27:27;16.00;99.90
23520;DHT22;11936;50.820;4.336;2022-09-20T11:32:48;15.80;99.90
23520;DHT22;11936;50.820;4.336;2022-09-20T11:35:25;15.90;99.90
23520;DHT22;11936;50.820;4.336;2022-09-20T11:38:01;15.90;99.90
23520;DHT22;11936;50.820;4.336;2022-09-20T11:40:36;16.00;99.90
23520;DHT22;11936;50.820;4.336;2022-09-20T11:43:05;16.00;99.90
23520;DHT22;11936;50.820;4.336;2022-09-20T11:45:32;16.10;99.90
23520;DHT22;11936;50.820;4.336;2022-09-20T11:58:12;16.60;99.90
23520;DHT22;11936;50.820;4.336;2022-09-20T12:00:44;16.70;99.90
23520;DHT22;11936;50.820;4.336;2022-09-20T12:03:33;16.70;99.90
23520;DHT22;11936;50.820;4.336;2022-09-20T12:06:06;16.80;99.90
23520;DHT22;11936;50.820;4.336;2022-09-20T12:08:35;16.90;99.90
23520;DHT22;11936;50.820;4.336;2022-09-20T12:11:05;16.90;99.90
23520;DHT22;11936;50.820;4.336;2022-09-20T12:13:35;17.00;99.90
23520;DHT22;11936;50.820;4.336;2022-09-20T12:16:16;17.10;99.90
23520;DHT22;11936;50.820;4.336;2022-09-20T12:21:20;17.20;99.90
23520;DHT22;11936;50.820;4.336;2022-09-20T12:28:49;17.50;99.90
23520;DHT22;11936;50.820;4.336;2022-09-20T12:34:27;17.60;99.90
23520;DHT22;11936;50.820;4.336;2022-09-20T12:39:24;17.60;99.90
23520;DHT22;11936;50.820;4.336;2022-09-20T12:41:57;17.60;99.90
23520;DHT22;11936;50.820;4.336;2022-09-20T12:44:31;17.70;99.50
23520;DHT22;11936;50.820;4.336;2022-09-20T12:55:32;17.30;99.90
23520;DHT22;11936;50.820;4.336;2022-09-20T13:00:45;17.30;99.90
23520;DHT22;11936;50.820;4.336;2022-09-20T13:03:28;17.30;99.90
23520;DHT22;11936;50.820;4.336;2022-09-20T13:11:53;17.40;99.90
23520;DHT22;11936;50.820;4.336;2022-09-20T13:14:26;17.30;99.90
23520;DHT22;11936;50.820;4.336;2022-09-20T13:19:35;17.20;99.90
23520;DHT22;11936;50.820;4.336;2022-09-20T13:24:37;17.20;99.90
23520;DHT22;11936;50.820;4.336;2022-09-20T13:27:11;17.20;99.90
23520;DHT22;11936;50.820;4.336;2022-09-20T13:29:42;17.10;99.90
23520;DHT22;11936;50.820;4.336;2022-09-20T13:32:25;17.10;99.90
23520;DHT22;11936;50.820;4.336;2022-09-20T13:40:34;16.70;99.90
23520;DHT22;11936;50.820;4.336;2022-09-20T13:43:24;16.60;99.90
23520;DHT22;11936;50.820;4.336;2022-09-20T13:45:52;16.70;99.90
23520;DHT22;11936;50.820;4.336;2022-09-20T13:48:23;16.70;99.90
23520;DHT22;11936;50.820;4.336;2022-09-20T13:50:49;16.80;99.90
23520;DHT22;11936;50.820;4.336;2022-09-20T13:53:17;16.90;99.90
23520;DHT22;11936;50.820;4.336;2022-09-20T13:55:43;16.70;99.90
23520;DHT22;11936;50.820;4.336;2022-09-20T13:58:28;16.70;99.90
23520;DHT22;11936;50.820;4.336;2022-09-20T14:00:58;16.80;99.90
23520;DHT22;11936;50.820;4.336;2022-09-20T14:03:26;16.80;99.90
23520;DHT22;11936;50.820;4.336;2022-09-20T14:06:05;16.90;99.90
23520;DHT22;11936;50.820;4.336;2022-09-20T14:08:43;17.00;99.90
23520;DHT22;11936;50.820;4.336;2022-09-20T14:11:25;17.10;99.90
23520;DHT22;11936;50.820;4.336;2022-09-20T14:13:54;17.20;99.90
23520;DHT22;11936;50.820;4.336;2022-09-20T14:16:22;17.20;99.90
23520;DHT22;11936;50.820;4.336;2022-09-20T14:18:48;17.20;99.90
23520;DHT22;11936;50.820;4.336;2022-09-20T14:21:21;17.30;99.90
23520;DHT22;11936;50.820;4.336;2022-09-20T14:23:50;17.30;99.90
23520;DHT22;11936;50.820;4.336;2022-09-20T14:28:45;17.30;99.90
23520;DHT22;11936;50.820;4.336;2022-09-20T14:31:27;17.40;99.90
23520;DHT22;11936;50.820;4.336;2022-09-20T14:33:57;17.20;99.90
23520;DHT22;11936;50.820;4.336;2022-09-20T14:36:26;17.30;99.90
23520;DHT22;11936;50.820;4.336;2022-09-20T14:38:55;17.30;99.90
23520;DHT22;11936;50.820;4.336;2022-09-20T14:41:46;17.20;99.90
23520;DHT22;11936;50.820;4.336;2022-09-20T14:44:29;17.30;99.90
23520;DHT22;11936;50.820;4.336;2022-09-20T14:46:55;17.40;99.90
23520;DHT22;11936;50.820;4.336;2022-09-20T14:51:51;17.60;99.90
23520;DHT22;11936;50.820;4.336;2022-09-20T14:54:24;17.60;99.90
23520;DHT22;11936;50.820;4.336;2022-09-20T14:56:51;17.60;99.90
23520;DHT22;11936;50.820;4.336;2022-09-20T14:59:35;17.40;99.90
23520;DHT22;11936;50.820;4.336;2022-09-20T15:02:12;17.40;99.90
23520;DHT22;11936;50.820;4.336;2022-09-20T15:04:39;17.30;99.90
23520;DHT22;11936;50.820;4.336;2022-09-20T15:07:08;17.20;99.90
23520;DHT22;11936;50.820;4.336;2022-09-20T15:09:36;17.10;99.90
23520;DHT22;11936;50.820;4.336;2022-09-20T15:12:04;17.10;99.90
23520;DHT22;11936;50.820;4.336;2022-09-20T15:14:30;17.20;99.90
23520;DHT22;11936;50.820;4.336;2022-09-20T15:16:57;17.30;99.90
23520;DHT22;11936;50.820;4.336;2022-09-20T15:19:24;17.40;99.90
23520;DHT22;11936;50.820;4.336;2022-09-20T15:21:49;17.30;99.90
23520;DHT22;11936;50.820;4.336;2022-09-20T15:24:15;17.10;99.90
23520;DHT22;11936;50.820;4.336;2022-09-20T15:26:43;17.10;99.90
23520;DHT22;11936;50.820;4.336;2022-09-20T15:29:15;17.00;99.90
23520;DHT22;11936;50.820;4.336;2022-09-20T15:31:42;17.00;99.90
23520;DHT22;11936;50.820;4.336;2022-09-20T15:34:09;17.00;99.90
23520;DHT22;11936;50.820;4.336;2022-09-20T15:36:37;17.00;99.90
23520;DHT22;11936;50.820;4.336;2022-09-20T15:39:03;16.90;99.90
23520;DHT22;11936;50.820;4.336;2022-09-20T15:41:29;17.00;99.90
23520;DHT22;11936;50.820;4.336;2022-09-20T15:43:55;17.00;99.90
23520;DHT22;11936;50.820;4.336;2022-09-20T15:46:23;16.90;99.90
23520;DHT22;11936;50.820;4.336;2022-09-20T15:48:51;16.80;99.90
23520;DHT22;11936;50.820;4.336;2022-09-20T15:51:16;16.70;99.90
23520;DHT22;11936;50.820;4.336;2022-09-20T15:54:00;16.70;99.90
23520;DHT22;11936;50.820;4.336;2022-09-20T15:56:28;16.70;99.90
23520;DHT22;11936;50.820;4.336;2022-09-20T15:58:56;16.60;99.90
23520;DHT22;11936;50.820;4.336;2022-09-20T16:01:27;16.70;99.90
23520;DHT22;11936;50.820;4.336;2022-09-20T16:03:54;16.70;99.90
23520;DHT22;11936;50.820;4.336;2022-09-20T16:06:20;16.80;99.90
23520;DHT22;11936;50.820;4.336;2022-09-20T16:08:46;16.80;99.90
23520;DHT22;11936;50.820;4.336;2022-09-20T16:11:13;16.90;99.90
23520;DHT22;11936;50.820;4.336;2022-09-20T16:13:39;16.90;99.90
23520;DHT22;11936;50.820;4.336;2022-09-20T16:16:07;16.80;99.90
23520;DHT22;11936;50.820;4.336;2022-09-20T16:18:35;16.70;99.90
23520;DHT22;11936;50.820;4.336;2022-09-20T16:21:19;16.60;99.90
23520;DHT22;11936;50.820;4.336;2022-09-20T16:23:50;16.60;99.90
23520;DHT22;11936;50.820;4.336;2022-09-20T16:26:17;16.70;99.90
23520;DHT22;11936;50.820;4.336;2022-09-20T16:28:44;16.70;99.90
23520;DHT22;11936;50.820;4.336;2022-09-20T16:31:39;16.60;99.90
23520;DHT22;11936;50.820;4.336;2022-09-20T16:36:50;16.60;99.90
23520;DHT22;11936;50.820;4.336;2022-09-20T16:39:17;16.60;99.90
23520;DHT22;11936;50.820;4.336;2022-09-20T16:41:45;16.60;99.90
23520;DHT22;11936;50.820;4.336;2022-09-20T16:44:12;16.60;99.90
23520;DHT22;11936;50.820;4.336;2022-09-20T16:46:38;16.60;99.90
23520;DHT22;11936;50.820;4.336;2022-09-20T16:49:08;16.70;99.90
23520;DHT22;11936;50.820;4.336;2022-09-20T16:51:37;16.70;99.90
23520;DHT22;11936;50.820;4.336;2022-09-20T16:54:08;16.70;99.90
23520;DHT22;11936;50.820;4.336;2022-09-20T16:56:42;16.60;99.90
23520;DHT22;11936;50.820;4.336;2022-09-20T16:59:09;16.70;99.90
23520;DHT22;11936;50.820;4.336;2022-09-20T17:01:36;16.60;99.90
23520;DHT22;11936;50.820;4.336;2022-09-20T17:04:03;16.50;99.90
23520;DHT22;11936;50.820;4.336;2022-09-20T17:06:33;16.60;99.90
23520;DHT22;11936;50.820;4.336;2022-09-20T17:08:59;16.40;99.90
23520;DHT22;11936;50.820;4.336;2022-09-20T17:11:27;16.20;99.90
23520;DHT22;11936;50.820;4.336;2022-09-20T17:13:54;16.20;99.90
23520;DHT22;11936;50.820;4.336;2022-09-20T17:16:21;16.20;99.90
23520;DHT22;11936;50.820;4.336;2022-09-20T17:21:21;16.10;99.90
23520;DHT22;11936;50.820;4.336;2022-09-20T17:23:50;16.10;99.90
23520;DHT22;11936;50.820;4.336;2022-09-20T17:26:24;16.10;99.90
23520;DHT22;11936;50.820;4.336;2022-09-20T17:28:52;16.10;99.90
23520;DHT22;11936;50.820;4.336;2022-09-20T17:31:21;16.10;99.90
23520;DHT22;11936;50.820;4.336;2022-09-20T17:33:48;16.00;99.90
23520;DHT22;11936;50.820;4.336;2022-09-20T17:36:16;16.00;99.90
23520;DHT22;11936;50.820;4.336;2022-09-20T17:38:43;16.00;99.90
23520;DHT22;11936;50.820;4.336;2022-09-20T17:41:15;16.00;99.90
23520;DHT22;11936;50.820;4.336;2022-09-20T17:43:41;16.00;99.90
23520;DHT22;11936;50.820;4.336;2022-09-20T17:46:14;16.00;99.90
23520;DHT22;11936;50.820;4.336;2022-09-20T17:48:42;15.90;99.90
23520;DHT22;11936;50.820;4.336;2022-09-20T17:51:14;15.90;99.90
23520;DHT22;11936;50.820;4.336;2022-09-20T17:53:40;15.90;99.90
23520;DHT22;11936;50.820;4.336;2022-09-20T17:56:06;15.90;99.90
23520;DHT22;11936;50.820;4.336;2022-09-20T17:58:33;15.70;99.90
23520;DHT22;11936;50.820;4.336;2022-09-20T18:01:09;15.70;99.90
23520;DHT22;11936;50.820;4.336;2022-09-20T18:03:37;15.70;99.90
23520;DHT22;11936;50.820;4.336;2022-09-20T18:06:33;15.70;99.90
23520;DHT22;11936;50.820;4.336;2022-09-20T18:09:02;15.70;99.90
23520;DHT22;11936;50.820;4.336;2022-09-20T18:11:30;15.70;99.90
23520;DHT22;11936;50.820;4.336;2022-09-20T18:13:59;15.60;99.90
23520;DHT22;11936;50.820;4.336;2022-09-20T18:16:24;15.60;99.90
23520;DHT22;11936;50.820;4.336;2022-09-20T18:18:50;15.60;99.90
23520;DHT22;11936;50.820;4.336;2022-09-20T18:21:21;15.60;99.90
23520;DHT22;11936;50.820;4.336;2022-09-20T18:23:48;15.50;99.90
23520;DHT22;11936;50.820;4.336;2022-09-20T18:26:19;15.50;99.90
23520;DHT22;11936;50.820;4.336;2022-09-20T18:31:25;15.40;99.90
23520;DHT22;11936;50.820;4.336;2022-09-20T18:33:52;15.40;99.90
23520;DHT22;11936;50.820;4.336;2022-09-20T18:36:18;15.40;99.90
23520;DHT22;11936;50.820;4.336;2022-09-20T18:38:44;15.40;99.90
23520;DHT22;11936;50.820;4.336;2022-09-20T18:41:10;15.30;99.90
23520;DHT22;11936;50.820;4.336;2022-09-20T18:43:39;15.30;99.90
23520;DHT22;11936;50.820;4.336;2022-09-20T18:46:09;15.30;99.90
23520;DHT22;11936;50.820;4.336;2022-09-20T18:48:35;15.20;99.90
23520;DHT22;11936;50.820;4.336;2022-09-20T18:51:03;15.20;99.90
23520;DHT22;11936;50.820;4.336;2022-09-20T18:53:32;15.20;99.90
23520;DHT22;11936;50.820;4.336;2022-09-20T18:56:07;15.30;99.90
23520;DHT22;11936;50.820;4.336;2022-09-20T18:58:34;15.30;99.90
23520;DHT22;11936;50.820;4.336;2022-09-20T19:06:11;15.20;99.90
23520;DHT22;11936;50.820;4.336;2022-09-20T19:08:43;15.20;99.90
23520;DHT22;11936;50.820;4.336;2022-09-20T19:11:24;15.20;99.90
23520;DHT22;11936;50.820;4.336;2022-09-20T19:13:56;15.20;99.90
23520;DHT22;11936;50.820;4.336;2022-09-20T19:16:26;15.20;99.90
23520;DHT22;11936;50.820;4.336;2022-09-20T19:22:14;15.20;99.90
23520;DHT22;11936;50.820;4.336;2022-09-20T19:24:50;15.20;99.90
23520;DHT22;11936;50.820;4.336;2022-09-20T19:27:21;15.20;99.90
23520;DHT22;11936;50.820;4.336;2022-09-20T19:29:48;15.20;99.90
23520;DHT22;11936;50.820;4.336;2022-09-20T19:32:17;15.20;99.90
23520;DHT22;11936;50.820;4.336;2022-09-20T19:34:49;15.20;99.90
23520;DHT22;11936;50.820;4.336;2022-09-20T19:37:29;15.20;99.90
23520;DHT22;11936;50.820;4.336;2022-09-20T19:43:06;15.00;99.90
23520;DHT22;11936;50.820;4.336;2022-09-20T19:48:12;14.80;99.90
23520;DHT22;11936;50.820;4.336;2022-09-20T19:50:45;14.80;99.90
23520;DHT22;11936;50.820;4.336;2022-09-20T19:53:15;14.90;99.90
23520;DHT22;11936;50.820;4.336;2022-09-20T19:55:44;14.90;99.90
23520;DHT22;11936;50.820;4.336;2022-09-20T19:58:12;14.80;99.90
23520;DHT22;11936;50.820;4.336;2022-09-20T20:00:38;14.80;99.90
23520;DHT22;11936;50.820;4.336;2022-09-20T20:03:05;14.80;99.90
23520;DHT22;11936;50.820;4.336;2022-09-20T20:05:31;14.90;99.90
23520;DHT22;11936;50.820;4.336;2022-09-20T20:24:50;14.80;99.90
23520;DHT22;11936;50.820;4.336;2022-09-20T20:27:19;14.80;99.90
23520;DHT22;11936;50.820;4.336;2022-09-20T20:29:45;14.80;99.90
23520;DHT22;11936;50.820;4.336;2022-09-20T20:32:11;14.80;99.90
23520;DHT22;11936;50.820;4.336;2022-09-20T20:34:37;14.80;99.90
23520;DHT22;11936;50.820;4.336;2022-09-20T20:37:03;14.80;99.90
23520;DHT22;11936;50.820;4.336;2022-09-20T20:39:29;14.80;99.90
23520;DHT22;11936;50.820;4.336;2022-09-20T20:42:00;14.80;99.90
23520;DHT22;11936;50.820;4.336;2022-09-20T20:44:27;14.80;99.90
23520;DHT22;11936;50.820;4.336;2022-09-20T20:46:53;14.80;99.90
23520;DHT22;11936;50.820;4.336;2022-09-20T20:49:18;14.90;99.90
23520;DHT22;11936;50.820;4.336;2022-09-20T20:51:45;14.80;99.90
23520;DHT22;11936;50.820;4.336;2022-09-20T20:54:12;14.80;99.90
23520;DHT22;11936;50.820;4.336;2022-09-20T20:56:38;14.70;99.90
23520;DHT22;11936;50.820;4.336;2022-09-20T20:59:04;14.60;99.90
23520;DHT22;11936;50.820;4.336;2022-09-20T21:01:31;14.70;99.90
23520;DHT22;11936;50.820;4.336;2022-09-20T21:03:57;14.70;99.90
23520;DHT22;11936;50.820;4.336;2022-09-20T21:06:30;14.60;99.90
23520;DHT22;11936;50.820;4.336;2022-09-20T21:08:56;14.60;99.90
23520;DHT22;11936;50.820;4.336;2022-09-20T21:11:27;14.60;99.90
23520;DHT22;11936;50.820;4.336;2022-09-20T21:13:55;14.60;99.90
23520;DHT22;11936;50.820;4.336;2022-09-20T21:16:23;14.60;99.90